Pagrindinis puslapis
METAR-TAF:

METAR-TAF

Oro uostai :

Hanoveris, Vokietija

platuma: 52-28N, ilguma: 009-41E, Aukštis: 56 m

Dabartinis oras

Ataskaita buvo paskelbta 11 minutes, ne 09:20 UTC
Vėjas 6 kt iš Vakarų, svyruoja nuo Vakarų/Pietvakarių ir Šiaurės Vakarų
Temperatūra 14°C
Drėgmė 63%
Slėgis 1030 hPa
Matomumas 10 km arba daugiau
nėra debesų žemiau 1500 m ir nėra kamuolinių lietaus debesų

METAR: EDDV 200920Z 28006KT 250V310 CAVOK 14/07 Q1030 NOSIG

Laikas: 11:31 (09:31 UTC)

Prognozė

Ataskaita buvo paskelbta 4 valandos ir 31 minutes, ne 05:00 UTC
Prognozė galioja nuo 20 metu 06 UTC su 21 metu 06 UTC
Vėjas 5 kt iš Vakarų
Matomumas 10 km arba daugiau
Mažai debesys ne aukštis 3000 ft
Tapsmas
nuo 20 metu 21 UTC su 20 metu 24 UTC
Vėjas 2 kt iš Pietryčių
Laikinai
nuo 21 metu 00 UTC su 21 metu 06 UTC
Matomumas: 3000 m
rūkana
Tikimybė 30% :
Laikinai
nuo 21 metu 02 UTC su 21 metu 06 UTC
Matomumas: 0800 m
rūkas

TAF: EDDV 200500Z 2006/2106 27005KT 9999 FEW030 BECMG 2021/2024 14002KT TEMPO 2100/2106 3000 BR PROB30 TEMPO 2102/2106 0800 FG

Orai ataskaitas ir orų prognozės (METAR, TAF).

turimą stotys yra geltonos ir raudonos taškus žemėlapyje.

Perkelti pele per norėdami pamatyti stoties vardą.

Tada spustelėkite, norėdami matyti oro stebėjimo ir prognozės.

Norėdami pakeisti žemėlapį: spustelėkite ant žalios mygtukų su juodo kryžiaus žemyn,; žalią mygtuką su brūkšneliu, jei norite nutolinti; arba žalių rodyklių gretimoms žemėlapius.


METAR-TAF: